createdAt,value
2022-09-06T00:01:14.694Z,46.23
2022-09-06T00:03:43.674Z,46.10
2022-09-06T00:06:17.238Z,46.47
2022-09-06T00:08:47.908Z,46.61
2022-09-06T00:11:17.844Z,46.63
2022-09-06T00:13:47.777Z,47.00
2022-09-06T00:16:20.930Z,46.57
2022-09-06T00:18:50.346Z,47.00
2022-09-06T00:21:30.821Z,46.87
2022-09-06T00:23:58.987Z,46.53
2022-09-06T00:26:27.471Z,46.81
2022-09-06T00:28:55.723Z,47.22
2022-09-06T00:31:26.985Z,47.14
2022-09-06T00:33:55.188Z,47.31
2022-09-06T00:36:24.300Z,47.27
2022-09-06T00:38:52.475Z,47.24
2022-09-06T00:41:20.723Z,46.81
2022-09-06T00:43:48.910Z,47.35
2022-09-06T00:46:27.354Z,47.71
2022-09-06T00:49:04.976Z,47.05
2022-09-06T00:51:35.651Z,48.39
2022-09-06T00:54:07.413Z,47.76
2022-09-06T00:56:42.138Z,48.46
2022-09-06T00:59:10.722Z,48.42
2022-09-06T01:01:39.069Z,48.05
2022-09-06T01:04:08.492Z,48.07
2022-09-06T01:07:11.264Z,48.13
2022-09-06T01:10:23.791Z,49.61
2022-09-06T01:13:16.471Z,48.87
2022-09-06T01:15:50.937Z,48.82
2022-09-06T01:18:47.146Z,48.71
2022-09-06T01:21:40.005Z,49.06
2022-09-06T01:24:33.176Z,49.13
2022-09-06T01:27:34.784Z,48.87
2022-09-06T01:30:10.056Z,49.11
2022-09-06T01:33:16.126Z,48.59
2022-09-06T01:35:54.557Z,48.78
2022-09-06T01:38:22.874Z,49.34
2022-09-06T01:40:51.075Z,48.95
2022-09-06T01:43:37.646Z,49.13
2022-09-06T01:46:23.169Z,48.72
2022-09-06T01:49:09.795Z,48.93
2022-09-06T01:52:30.432Z,48.81
2022-09-06T01:55:24.182Z,48.91
2022-09-06T01:58:08.785Z,48.80
2022-09-06T02:00:58.982Z,48.52
2022-09-06T02:04:00.726Z,47.95
2022-09-06T02:06:38.891Z,48.28
2022-09-06T02:09:18.134Z,48.37
2022-09-06T02:11:59.067Z,48.44
2022-09-06T02:14:56.023Z,49.20
2022-09-06T02:17:32.646Z,49.21
2022-09-06T02:20:20.674Z,49.26
2022-09-06T02:22:53.889Z,49.43
2022-09-06T02:25:34.862Z,48.99
2022-09-06T02:28:04.307Z,48.76
2022-09-06T02:30:43.348Z,49.16
2022-09-06T02:33:20.899Z,49.77
2022-09-06T02:35:53.255Z,49.32
2022-09-06T02:38:25.129Z,49.53
2022-09-06T02:40:55.388Z,49.75
2022-09-06T02:43:23.533Z,49.21
2022-09-06T02:45:51.816Z,49.46
2022-09-06T02:48:20.115Z,49.30
2022-09-06T02:50:48.940Z,49.96
2022-09-06T02:53:18.079Z,49.82
2022-09-06T02:55:48.789Z,50.34
2022-09-06T03:01:23.766Z,50.39
2022-09-06T03:03:52.690Z,50.67
2022-09-06T03:06:21.226Z,51.45
2022-09-06T03:08:50.049Z,50.71
2022-09-06T03:11:18.697Z,52.28
2022-09-06T03:13:47.665Z,51.43
2022-09-06T03:16:16.193Z,51.62
2022-09-06T03:18:45.279Z,51.74
2022-09-06T03:21:14.939Z,52.29
2022-09-06T03:23:43.502Z,51.82
2022-09-06T03:26:12.735Z,51.97
2022-09-06T03:28:41.370Z,52.41
2022-09-06T03:31:10.159Z,52.05
2022-09-06T03:33:38.823Z,52.10
2022-09-06T03:36:07.446Z,52.64
2022-09-06T03:38:36.411Z,52.47
2022-09-06T03:41:04.922Z,52.20
2022-09-06T03:43:34.243Z,52.37
2022-09-06T03:46:02.761Z,53.85
2022-09-06T03:48:31.462Z,53.55
2022-09-06T03:51:00.502Z,53.45
2022-09-06T03:53:30.399Z,53.60
2022-09-06T03:56:00.304Z,53.37
2022-09-06T03:58:32.059Z,53.61
2022-09-06T04:01:09.913Z,53.22
2022-09-06T04:03:39.563Z,52.73
2022-09-06T04:06:09.016Z,52.86
2022-09-06T04:08:38.988Z,53.28
2022-09-06T04:11:08.080Z,53.38
2022-09-06T04:13:38.269Z,53.26
2022-09-06T04:16:07.362Z,53.41
2022-09-06T04:18:37.225Z,53.37
2022-09-06T04:21:06.946Z,54.14
2022-09-06T04:23:39.912Z,54.39
2022-09-06T04:26:08.614Z,54.13
2022-09-06T04:28:37.280Z,53.91
2022-09-06T04:31:06.014Z,53.86
2022-09-06T04:33:38.418Z,54.32
2022-09-06T04:36:12.517Z,54.69
2022-09-06T04:38:44.846Z,54.58
2022-09-06T04:41:16.967Z,54.97
2022-09-06T04:43:45.840Z,54.68
2022-09-06T04:46:30.949Z,54.54
2022-09-06T04:49:01.566Z,55.60
2022-09-06T04:51:35.429Z,56.00
2022-09-06T04:54:06.079Z,55.40
2022-09-06T04:56:36.566Z,54.51
2022-09-06T04:59:05.232Z,56.36
2022-09-06T05:01:35.065Z,56.45
2022-09-06T05:04:03.744Z,55.07
2022-09-06T05:06:33.530Z,55.26
2022-09-06T05:09:02.111Z,56.35
2022-09-06T05:11:31.455Z,56.28
2022-09-06T05:14:00.108Z,56.19
2022-09-06T05:16:28.935Z,56.59
2022-09-06T05:18:57.877Z,55.87
2022-09-06T05:21:26.578Z,55.55
2022-09-06T05:23:58.475Z,55.72
2022-09-06T05:26:31.958Z,55.76
2022-09-06T05:29:02.215Z,55.71
2022-09-06T05:31:34.289Z,56.50
2022-09-06T05:34:05.375Z,55.64
2022-09-06T05:36:35.076Z,55.67
2022-09-06T05:39:03.462Z,55.42
2022-09-06T05:41:33.937Z,55.60
2022-09-06T05:44:04.006Z,55.23
2022-09-06T05:46:34.825Z,55.96
2022-09-06T05:49:08.231Z,55.33
2022-09-06T05:51:36.760Z,55.00
2022-09-06T05:54:05.368Z,54.89
2022-09-06T05:56:34.577Z,54.79
2022-09-06T05:59:04.635Z,54.91
2022-09-06T06:01:34.467Z,54.46
2022-09-06T06:04:05.772Z,54.80
2022-09-06T06:06:35.583Z,54.93
2022-09-06T06:09:04.351Z,54.84
2022-09-06T06:11:32.979Z,55.07
2022-09-06T06:14:04.001Z,54.89
2022-09-06T06:16:32.710Z,54.84
2022-09-06T06:19:02.005Z,55.52
2022-09-06T06:21:33.196Z,54.95
2022-09-06T06:24:04.937Z,54.22
2022-09-06T06:26:36.017Z,54.30
2022-09-06T06:29:08.258Z,54.21
2022-09-06T06:31:39.477Z,54.24
2022-09-06T06:34:10.370Z,53.84
2022-09-06T06:36:39.296Z,54.00
2022-09-06T06:39:09.057Z,53.96
2022-09-06T06:41:37.905Z,53.62
2022-09-06T06:44:24.679Z,53.48
2022-09-06T06:46:53.614Z,53.59
2022-09-06T06:49:22.034Z,53.44
2022-09-06T06:51:50.365Z,53.20
2022-09-06T06:54:18.740Z,53.10
2022-09-06T06:56:47.246Z,53.10
2022-09-06T06:59:15.749Z,53.12
2022-09-06T07:01:47.241Z,52.27
2022-09-06T07:04:16.742Z,52.74
2022-09-06T07:12:30.739Z,52.40
2022-09-06T07:14:59.193Z,51.99
2022-09-06T07:17:28.206Z,51.89
2022-09-06T07:22:41.604Z,52.26
2022-09-06T07:25:14.490Z,52.12
2022-09-06T07:30:14.459Z,51.56
2022-09-06T07:32:42.857Z,51.24
2022-09-06T07:35:14.133Z,51.12
2022-09-06T07:37:42.670Z,51.12
2022-09-06T07:40:11.895Z,51.71
2022-09-06T07:42:40.629Z,51.68
2022-09-06T07:45:09.976Z,51.15
2022-09-06T07:50:48.023Z,50.83
2022-09-06T07:53:24.550Z,50.70
2022-09-06T07:55:59.492Z,51.28
2022-09-06T07:58:30.295Z,51.14
2022-09-06T08:01:37.171Z,50.88
2022-09-06T08:04:16.858Z,49.95
2022-09-06T08:09:39.484Z,50.05
2022-09-06T08:12:08.941Z,50.83
2022-09-06T08:14:42.418Z,50.67
2022-09-06T08:17:11.555Z,50.17
2022-09-06T08:19:40.961Z,49.73
2022-09-06T08:22:09.936Z,49.91
2022-09-06T08:24:39.049Z,50.28
2022-09-06T08:27:11.898Z,49.35
2022-09-06T08:29:41.212Z,48.80
2022-09-06T08:32:12.343Z,48.36
2022-09-06T08:34:40.865Z,48.16
2022-09-06T08:37:10.052Z,48.20
2022-09-06T08:39:42.758Z,48.29
2022-09-06T08:42:17.146Z,47.37
2022-09-06T08:47:45.054Z,47.19
2022-09-06T08:50:14.884Z,47.29
2022-09-06T08:53:23.804Z,47.63
2022-09-06T08:56:19.332Z,48.70
2022-09-06T08:59:11.793Z,47.37
2022-09-06T09:02:15.386Z,46.36
2022-09-06T09:04:52.582Z,44.94
2022-09-06T09:07:47.918Z,45.04
2022-09-06T09:10:30.189Z,43.92
2022-09-06T09:13:03.700Z,44.69
2022-09-06T09:15:31.899Z,46.51
2022-09-06T09:18:00.248Z,46.11
2022-09-06T09:20:28.865Z,46.04
2022-09-06T09:22:57.080Z,45.11
2022-09-06T09:25:25.487Z,45.04
2022-09-06T09:27:59.507Z,45.82
2022-09-06T09:30:53.748Z,46.15
2022-09-06T09:33:35.341Z,45.62
2022-09-06T09:36:20.843Z,45.07
2022-09-06T09:38:51.705Z,44.87
2022-09-06T09:41:36.617Z,44.55
2022-09-06T09:44:19.007Z,45.30
2022-09-06T09:46:47.256Z,46.03
2022-09-06T09:49:29.882Z,45.38
2022-09-06T09:52:07.048Z,44.70
2022-09-06T09:54:44.343Z,44.40
2022-09-06T09:57:19.558Z,44.89
2022-09-06T09:59:54.324Z,44.93
2022-09-06T10:02:32.460Z,44.70
2022-09-06T10:05:13.126Z,45.25
2022-09-06T10:07:49.282Z,44.25
2022-09-06T10:10:27.446Z,44.40
2022-09-06T10:13:31.094Z,44.14
2022-09-06T10:16:00.692Z,44.33
2022-09-06T10:18:33.256Z,44.39
2022-09-06T10:21:22.458Z,43.88
2022-09-06T10:24:26.886Z,43.93
2022-09-06T10:27:03.466Z,43.73
2022-09-06T10:29:53.153Z,44.13
2022-09-06T10:32:58.516Z,44.03
2022-09-06T10:35:38.272Z,44.04
2022-09-06T10:38:28.001Z,43.76
2022-09-06T10:41:34.494Z,44.14
2022-09-06T10:44:21.778Z,44.10
2022-09-06T10:47:01.365Z,44.89
2022-09-06T10:49:33.701Z,44.23
2022-09-06T10:52:08.637Z,43.67
2022-09-06T10:54:42.194Z,43.89
2022-09-06T11:00:16.701Z,43.61
2022-09-06T11:06:08.901Z,43.33
2022-09-06T11:08:53.428Z,43.44
2022-09-06T11:11:44.476Z,42.66
2022-09-06T11:14:15.474Z,42.15
2022-09-06T11:16:54.013Z,41.95
2022-09-06T11:19:46.756Z,40.81
2022-09-06T11:22:33.080Z,40.76
2022-09-06T11:25:39.800Z,39.50
2022-09-06T11:28:22.246Z,39.60
2022-09-06T11:30:58.121Z,40.03
2022-09-06T11:33:31.902Z,40.35
2022-09-06T11:36:36.073Z,40.34
2022-09-06T11:39:09.368Z,40.51
2022-09-06T11:41:42.017Z,40.85
2022-09-06T11:44:11.350Z,41.06
2022-09-06T11:46:42.889Z,40.92
2022-09-06T11:49:32.734Z,40.86
2022-09-06T11:52:01.685Z,41.55
2022-09-06T11:54:44.873Z,42.30
2022-09-06T11:57:21.651Z,42.01
2022-09-06T12:00:01.752Z,41.93
2022-09-06T12:02:43.583Z,41.76
2022-09-06T12:05:26.157Z,41.46
2022-09-06T12:08:25.870Z,41.40
2022-09-06T12:11:04.393Z,42.12
2022-09-06T12:14:00.901Z,41.92
2022-09-06T12:17:14.110Z,41.33
2022-09-06T12:20:07.536Z,41.60
2022-09-06T12:22:42.005Z,41.56
2022-09-06T12:25:36.538Z,41.52
2022-09-06T12:28:10.392Z,41.46
2022-09-06T12:30:48.501Z,41.51
2022-09-06T12:33:39.390Z,41.20
2022-09-06T12:36:30.451Z,41.07
2022-09-06T12:39:12.207Z,41.38
2022-09-06T12:41:48.791Z,41.16
2022-09-06T12:44:35.739Z,41.52
2022-09-06T12:47:12.903Z,41.84
2022-09-06T12:49:41.087Z,41.39
2022-09-06T12:52:19.271Z,41.18
2022-09-06T12:54:50.375Z,41.24
2022-09-06T12:57:23.700Z,41.57
2022-09-06T12:59:54.579Z,40.83
2022-09-06T13:03:14.314Z,40.38
2022-09-06T13:05:45.476Z,41.16
2022-09-06T13:08:22.803Z,40.08
2022-09-06T13:10:51.474Z,39.54
2022-09-06T13:13:25.094Z,39.56
2022-09-06T13:15:54.351Z,38.77
2022-09-06T13:18:39.768Z,39.69
2022-09-06T13:21:14.222Z,39.51
2022-09-06T13:23:44.769Z,40.28
2022-09-06T13:26:13.098Z,40.64
2022-09-06T13:28:41.512Z,39.83
2022-09-06T13:31:21.739Z,40.48
2022-09-06T13:34:00.240Z,40.40
2022-09-06T13:36:31.490Z,40.27
2022-09-06T13:39:03.697Z,40.48
2022-09-06T13:41:40.775Z,40.38
2022-09-06T13:44:15.121Z,40.45
2022-09-06T13:46:44.723Z,40.52
2022-09-06T13:49:13.800Z,40.79
2022-09-06T13:51:43.409Z,40.68
2022-09-06T13:54:14.485Z,40.25
2022-09-06T13:56:44.776Z,41.00
2022-09-06T13:59:13.082Z,39.85
2022-09-06T14:01:45.933Z,40.20
2022-09-06T14:04:21.515Z,40.99
2022-09-06T14:06:49.890Z,40.55
2022-09-06T14:09:18.144Z,40.27
2022-09-06T14:11:48.440Z,41.40
2022-09-06T14:14:18.083Z,41.03
2022-09-06T14:16:47.744Z,40.01
2022-09-06T14:19:16.846Z,40.53
2022-09-06T14:21:45.059Z,41.03
2022-09-06T14:24:13.354Z,40.48
2022-09-06T14:26:41.662Z,40.74
2022-09-06T14:29:09.940Z,41.34
2022-09-06T14:31:38.987Z,40.74
2022-09-06T14:34:07.411Z,40.43
2022-09-06T14:36:35.702Z,40.31
2022-09-06T14:39:04.893Z,40.67
2022-09-06T14:41:33.214Z,40.65
2022-09-06T14:44:01.572Z,40.83
2022-09-06T14:46:30.278Z,40.78
2022-09-06T14:49:10.060Z,40.26
2022-09-06T14:51:39.862Z,39.92
2022-09-06T14:54:12.786Z,41.00
2022-09-06T14:56:44.216Z,40.81
2022-09-06T14:59:12.685Z,41.86
2022-09-06T15:01:41.240Z,40.68
2022-09-06T15:04:11.838Z,40.22
2022-09-06T15:06:44.893Z,40.85
2022-09-06T15:09:17.562Z,39.67
2022-09-06T15:11:50.698Z,39.72
2022-09-06T15:14:23.170Z,40.27
2022-09-06T15:16:56.150Z,40.17
2022-09-06T15:19:27.017Z,39.88
2022-09-06T15:21:57.311Z,40.51
2022-09-06T15:24:26.127Z,40.47
2022-09-06T15:26:55.037Z,40.17
2022-09-06T15:29:23.557Z,41.43
2022-09-06T15:31:51.946Z,40.77
2022-09-06T15:34:23.971Z,40.81
2022-09-06T15:36:54.539Z,41.25
2022-09-06T15:39:22.795Z,40.74
2022-09-06T15:41:51.799Z,41.27
2022-09-06T15:44:23.688Z,41.68
2022-09-06T15:46:58.251Z,42.11
2022-09-06T15:49:32.121Z,42.42
2022-09-06T15:52:03.042Z,42.23
2022-09-06T15:54:49.775Z,42.09
2022-09-06T15:57:18.614Z,42.80
2022-09-06T15:59:47.569Z,42.32
2022-09-06T16:02:15.967Z,42.59
2022-09-06T16:04:46.202Z,43.26
2022-09-06T16:07:14.871Z,43.08
2022-09-06T16:09:43.436Z,42.96
2022-09-06T16:12:11.803Z,42.35
2022-09-06T16:14:40.034Z,42.26
2022-09-06T16:17:08.365Z,42.78
2022-09-06T16:19:36.676Z,42.69
2022-09-06T16:22:04.920Z,42.88
2022-09-06T16:24:33.256Z,41.86
2022-09-06T16:27:02.334Z,42.29
2022-09-06T16:29:31.926Z,42.41
2022-09-06T16:32:00.729Z,42.74
2022-09-06T16:34:29.032Z,42.88
2022-09-06T16:36:57.665Z,43.22
2022-09-06T16:39:26.042Z,42.42
2022-09-06T16:41:54.245Z,42.88
2022-09-06T16:44:22.523Z,42.31
2022-09-06T16:46:50.885Z,42.60
2022-09-06T16:49:20.066Z,42.82
2022-09-06T16:51:50.341Z,42.76
2022-09-06T16:54:20.034Z,42.77
2022-09-06T16:56:48.671Z,42.60
2022-09-06T16:59:18.066Z,42.51
2022-09-06T17:01:47.434Z,42.81
2022-09-06T17:04:16.127Z,42.69
2022-09-06T17:06:45.204Z,42.27
2022-09-06T17:09:21.687Z,42.33
2022-09-06T17:11:50.394Z,42.56
2022-09-06T17:14:19.213Z,42.60
2022-09-06T17:17:05.580Z,41.78
2022-09-06T17:19:40.644Z,41.87
2022-09-06T17:22:11.321Z,42.11
2022-09-06T17:24:41.456Z,42.12
2022-09-06T17:27:10.305Z,42.26
2022-09-06T17:29:40.105Z,42.07
2022-09-06T17:32:11.816Z,42.44
2022-09-06T17:34:41.083Z,42.25
2022-09-06T17:37:09.434Z,42.19
2022-09-06T17:39:38.599Z,42.41
2022-09-06T17:42:07.822Z,42.05
2022-09-06T17:44:36.128Z,43.31
2022-09-06T17:47:13.427Z,42.56
2022-09-06T17:49:43.264Z,42.49
2022-09-06T17:52:11.737Z,42.49
2022-09-06T17:54:40.068Z,42.69
2022-09-06T17:57:08.440Z,43.23
2022-09-06T17:59:36.738Z,42.99
2022-09-06T18:02:05.466Z,43.37
2022-09-06T18:04:33.824Z,43.44
2022-09-06T18:07:02.232Z,42.73
2022-09-06T18:09:30.670Z,41.88
2022-09-06T18:11:59.259Z,42.88
2022-09-06T18:14:28.694Z,43.28
2022-09-06T18:16:57.297Z,44.30
2022-09-06T18:19:27.569Z,43.83
2022-09-06T18:21:57.346Z,43.66
2022-09-06T18:24:25.817Z,44.54
2022-09-06T18:26:54.182Z,44.17
2022-09-06T18:29:22.619Z,44.51
2022-09-06T18:31:53.903Z,44.02
2022-09-06T18:37:05.889Z,43.67
2022-09-06T18:39:34.203Z,43.24
2022-09-06T18:42:04.042Z,43.43
2022-09-06T18:44:34.728Z,43.08
2022-09-06T18:47:07.351Z,43.19
2022-09-06T18:49:39.457Z,43.65
2022-09-06T18:52:10.341Z,43.06
2022-09-06T18:54:38.968Z,43.13
2022-09-06T18:57:07.284Z,43.18
2022-09-06T18:59:35.603Z,42.89
2022-09-06T19:02:04.155Z,43.26
2022-09-06T19:04:32.806Z,44.02
2022-09-06T19:07:02.833Z,43.35
2022-09-06T19:12:23.805Z,43.71
2022-09-06T19:14:53.662Z,44.37
2022-09-06T19:17:21.936Z,43.61
2022-09-06T19:19:50.350Z,43.70
2022-09-06T19:25:29.868Z,44.27
2022-09-06T19:27:58.246Z,43.69
2022-09-06T19:30:26.429Z,43.26
2022-09-06T19:32:54.736Z,43.71
2022-09-06T19:35:27.271Z,43.66
2022-09-06T19:38:04.781Z,43.49
2022-09-06T19:40:33.088Z,44.06
2022-09-06T19:43:01.312Z,43.65
2022-09-06T19:45:29.677Z,43.68
2022-09-06T19:47:57.866Z,43.64
2022-09-06T19:50:26.063Z,43.92
2022-09-06T19:52:55.104Z,43.50
2022-09-06T19:55:23.298Z,43.49
2022-09-06T19:57:51.844Z,43.40
2022-09-06T20:00:23.391Z,43.54
2022-09-06T20:03:09.152Z,43.71
2022-09-06T20:05:38.607Z,43.85
2022-09-06T20:08:06.824Z,43.70
2022-09-06T20:10:46.993Z,43.98
2022-09-06T20:13:21.884Z,43.91
2022-09-06T20:15:51.675Z,43.98
2022-09-06T20:18:22.542Z,44.25
2022-09-06T20:20:56.598Z,44.15
2022-09-06T20:23:25.685Z,44.73
2022-09-06T20:26:10.911Z,44.83
2022-09-06T20:28:39.513Z,44.18
2022-09-06T20:31:16.419Z,44.80
2022-09-06T20:33:49.492Z,44.94
2022-09-06T20:36:20.090Z,44.60
2022-09-06T20:38:49.905Z,44.58
2022-09-06T20:41:24.523Z,44.34
2022-09-06T20:44:00.177Z,44.80
2022-09-06T20:46:32.382Z,44.37
2022-09-06T20:49:04.574Z,44.56
2022-09-06T20:51:37.336Z,44.76
2022-09-06T20:54:06.707Z,44.96
2022-09-06T20:56:39.421Z,45.22
2022-09-06T20:59:13.706Z,45.48
2022-09-06T21:01:46.652Z,45.43
2022-09-06T21:04:17.775Z,46.14
2022-09-06T21:06:46.697Z,45.83
2022-09-06T21:09:15.585Z,46.41
2022-09-06T21:11:45.256Z,46.15
2022-09-06T21:14:14.039Z,46.10
2022-09-06T21:16:42.398Z,45.79
2022-09-06T21:19:12.361Z,45.56
2022-09-06T21:21:41.342Z,45.69
2022-09-06T21:24:10.901Z,45.90
2022-09-06T21:26:40.997Z,45.82
2022-09-06T21:29:09.468Z,46.12
2022-09-06T21:31:38.040Z,45.72
2022-09-06T21:34:16.206Z,45.65
2022-09-06T21:36:45.745Z,45.67
2022-09-06T21:39:14.865Z,46.54
2022-09-06T21:41:44.636Z,46.22
2022-09-06T21:44:13.348Z,45.74
2022-09-06T21:46:41.925Z,46.41
2022-09-06T21:49:13.411Z,45.91
2022-09-06T21:51:42.147Z,46.05
2022-09-06T21:54:10.503Z,46.41
2022-09-06T21:56:40.273Z,47.14
2022-09-06T21:59:09.791Z,46.64
2022-09-06T22:01:39.885Z,46.94
2022-09-06T22:04:08.676Z,46.67
2022-09-06T22:06:37.934Z,46.76
2022-09-06T22:09:11.308Z,46.54
2022-09-06T22:11:43.484Z,46.45
2022-09-06T22:14:14.672Z,46.42
2022-09-06T22:16:43.097Z,46.47
2022-09-06T22:19:12.002Z,46.67
2022-09-06T22:21:40.637Z,46.33
2022-09-06T22:24:11.659Z,46.18
2022-09-06T22:26:41.381Z,47.20
2022-09-06T22:29:13.570Z,46.35
2022-09-06T22:31:42.538Z,46.74
2022-09-06T22:34:11.391Z,46.73
2022-09-06T22:36:40.170Z,46.30
2022-09-06T22:39:09.606Z,46.48
2022-09-06T22:41:38.287Z,46.61
2022-09-06T22:44:07.000Z,45.69
2022-09-06T22:46:37.162Z,46.47
2022-09-06T22:49:05.646Z,46.50
2022-09-06T22:51:33.886Z,46.03
2022-09-06T22:54:02.283Z,46.57
2022-09-06T22:56:31.452Z,47.28
2022-09-06T22:59:00.627Z,47.97
2022-09-06T23:01:29.491Z,48.14
2022-09-06T23:03:57.725Z,48.12
2022-09-06T23:06:26.293Z,48.24
2022-09-06T23:08:54.645Z,48.07
2022-09-06T23:11:22.899Z,48.53
2022-09-06T23:13:56.674Z,47.53
2022-09-06T23:16:27.060Z,47.72
2022-09-06T23:18:56.164Z,46.95
2022-09-06T23:21:26.485Z,47.19
2022-09-06T23:23:57.227Z,47.54
2022-09-06T23:26:30.138Z,47.63
2022-09-06T23:28:58.854Z,47.89
2022-09-06T23:31:31.599Z,47.97
2022-09-06T23:34:02.178Z,47.07
2022-09-06T23:36:32.063Z,47.73
2022-09-06T23:39:02.293Z,47.14
2022-09-06T23:41:30.547Z,47.04
2022-09-06T23:43:58.611Z,47.20
2022-09-06T23:46:27.313Z,47.26
2022-09-06T23:48:55.558Z,45.93
2022-09-06T23:51:23.819Z,46.44
2022-09-06T23:53:52.598Z,45.68
2022-09-06T23:56:21.636Z,45.70
2022-09-06T23:58:49.902Z,46.33
